sensor_id;sensor_type;location;lat;lon;timestamp;P1;durP1;ratioP1;P2;durP2;ratioP2
17566;SDS011;8901;52.088;5.084;2023-04-06T00:00:54;20.13;;;18.63;;
17566;SDS011;8901;52.088;5.084;2023-04-06T00:03:21;22.03;;;20.23;;
17566;SDS011;8901;52.088;5.084;2023-04-06T00:05:48;20.93;;;19.30;;
17566;SDS011;8901;52.088;5.084;2023-04-06T00:08:16;22.53;;;20.63;;
17566;SDS011;8901;52.088;5.084;2023-04-06T00:10:43;23.40;;;21.60;;
17566;SDS011;8901;52.088;5.084;2023-04-06T00:13:10;21.60;;;20.00;;
17566;SDS011;8901;52.088;5.084;2023-04-06T00:15:39;22.37;;;20.47;;
17566;SDS011;8901;52.088;5.084;2023-04-06T00:18:06;23.13;;;21.13;;
17566;SDS011;8901;52.088;5.084;2023-04-06T00:20:33;22.23;;;20.43;;
17566;SDS011;8901;52.088;5.084;2023-04-06T00:23:00;21.50;;;19.90;;
17566;SDS011;8901;52.088;5.084;2023-04-06T00:25:27;22.17;;;20.43;;
17566;SDS011;8901;52.088;5.084;2023-04-06T00:27:54;21.97;;;20.17;;
17566;SDS011;8901;52.088;5.084;2023-04-06T00:30:21;22.87;;;20.83;;
17566;SDS011;8901;52.088;5.084;2023-04-06T00:32:50;21.40;;;19.70;;
17566;SDS011;8901;52.088;5.084;2023-04-06T00:35:17;21.30;;;19.60;;
17566;SDS011;8901;52.088;5.084;2023-04-06T00:37:45;23.43;;;21.50;;
17566;SDS011;8901;52.088;5.084;2023-04-06T00:40:13;21.57;;;19.90;;
17566;SDS011;8901;52.088;5.084;2023-04-06T00:42:40;22.47;;;20.77;;
17566;SDS011;8901;52.088;5.084;2023-04-06T00:45:08;21.87;;;20.10;;
17566;SDS011;8901;52.088;5.084;2023-04-06T00:47:35;21.40;;;19.70;;
17566;SDS011;8901;52.088;5.084;2023-04-06T00:50:04;21.27;;;19.67;;
17566;SDS011;8901;52.088;5.084;2023-04-06T00:52:31;23.43;;;21.63;;
17566;SDS011;8901;52.088;5.084;2023-04-06T00:55:01;21.57;;;19.77;;
17566;SDS011;8901;52.088;5.084;2023-04-06T00:57:28;22.37;;;20.47;;
17566;SDS011;8901;52.088;5.084;2023-04-06T00:59:55;21.93;;;19.97;;
17566;SDS011;8901;52.088;5.084;2023-04-06T01:02:23;21.43;;;19.67;;
17566;SDS011;8901;52.088;5.084;2023-04-06T01:04:51;22.27;;;20.37;;
17566;SDS011;8901;52.088;5.084;2023-04-06T01:07:20;22.03;;;20.33;;
17566;SDS011;8901;52.088;5.084;2023-04-06T01:09:47;22.37;;;20.33;;
17566;SDS011;8901;52.088;5.084;2023-04-06T01:12:14;21.23;;;19.53;;
17566;SDS011;8901;52.088;5.084;2023-04-06T01:14:42;21.30;;;19.60;;
17566;SDS011;8901;52.088;5.084;2023-04-06T01:17:09;21.17;;;19.37;;
17566;SDS011;8901;52.088;5.084;2023-04-06T01:19:36;22.20;;;20.27;;
17566;SDS011;8901;52.088;5.084;2023-04-06T01:22:05;20.47;;;18.97;;
17566;SDS011;8901;52.088;5.084;2023-04-06T01:24:33;20.83;;;19.13;;
17566;SDS011;8901;52.088;5.084;2023-04-06T01:27:00;21.60;;;20.00;;
17566;SDS011;8901;52.088;5.084;2023-04-06T01:29:28;19.97;;;18.37;;
17566;SDS011;8901;52.088;5.084;2023-04-06T01:31:55;20.10;;;18.50;;
17566;SDS011;8901;52.088;5.084;2023-04-06T01:34:22;21.13;;;19.33;;
17566;SDS011;8901;52.088;5.084;2023-04-06T01:36:49;20.43;;;18.83;;
17566;SDS011;8901;52.088;5.084;2023-04-06T01:39:16;21.43;;;19.53;;
17566;SDS011;8901;52.088;5.084;2023-04-06T01:41:45;18.87;;;17.43;;
17566;SDS011;8901;52.088;5.084;2023-04-06T01:44:12;20.73;;;19.07;;
17566;SDS011;8901;52.088;5.084;2023-04-06T01:46:39;20.93;;;19.43;;
17566;SDS011;8901;52.088;5.084;2023-04-06T01:49:07;21.50;;;19.90;;
17566;SDS011;8901;52.088;5.084;2023-04-06T01:51:34;20.40;;;18.80;;
17566;SDS011;8901;52.088;5.084;2023-04-06T01:54:01;21.13;;;19.47;;
17566;SDS011;8901;52.088;5.084;2023-04-06T01:56:28;19.97;;;18.40;;
17566;SDS011;8901;52.088;5.084;2023-04-06T01:58:56;20.23;;;18.60;;
17566;SDS011;8901;52.088;5.084;2023-04-06T02:01:24;20.27;;;18.57;;
17566;SDS011;8901;52.088;5.084;2023-04-06T02:03:51;19.90;;;18.27;;
17566;SDS011;8901;52.088;5.084;2023-04-06T02:06:18;19.37;;;17.77;;
17566;SDS011;8901;52.088;5.084;2023-04-06T02:08:45;20.80;;;19.20;;
17566;SDS011;8901;52.088;5.084;2023-04-06T02:11:12;19.70;;;18.23;;
17566;SDS011;8901;52.088;5.084;2023-04-06T02:13:40;20.87;;;18.93;;
17566;SDS011;8901;52.088;5.084;2023-04-06T02:16:08;20.50;;;18.33;;
17566;SDS011;8901;52.088;5.084;2023-04-06T02:18:35;20.10;;;18.70;;
17566;SDS011;8901;52.088;5.084;2023-04-06T02:21:02;21.53;;;19.73;;
17566;SDS011;8901;52.088;5.084;2023-04-06T02:23:30;20.80;;;19.30;;
17566;SDS011;8901;52.088;5.084;2023-04-06T02:25:57;21.10;;;19.30;;
17566;SDS011;8901;52.088;5.084;2023-04-06T02:28:24;19.57;;;17.90;;
17566;SDS011;8901;52.088;5.084;2023-04-06T02:30:51;20.17;;;18.77;;
17566;SDS011;8901;52.088;5.084;2023-04-06T02:33:20;20.10;;;18.50;;
17566;SDS011;8901;52.088;5.084;2023-04-06T02:35:47;20.73;;;19.17;;
17566;SDS011;8901;52.088;5.084;2023-04-06T02:38:14;20.33;;;18.83;;
17566;SDS011;8901;52.088;5.084;2023-04-06T02:40:41;20.17;;;18.47;;
17566;SDS011;8901;52.088;5.084;2023-04-06T02:43:08;20.17;;;18.57;;
17566;SDS011;8901;52.088;5.084;2023-04-06T02:45:35;19.27;;;17.87;;
17566;SDS011;8901;52.088;5.084;2023-04-06T02:48:02;20.40;;;18.70;;
17566;SDS011;8901;52.088;5.084;2023-04-06T02:50:31;21.13;;;19.27;;
17566;SDS011;8901;52.088;5.084;2023-04-06T02:52:58;20.63;;;19.13;;
17566;SDS011;8901;52.088;5.084;2023-04-06T02:55:25;19.67;;;18.27;;
17566;SDS011;8901;52.088;5.084;2023-04-06T02:57:52;20.80;;;19.23;;
17566;SDS011;8901;52.088;5.084;2023-04-06T03:00:20;20.83;;;19.13;;
17566;SDS011;8901;52.088;5.084;2023-04-06T03:02:47;19.73;;;18.20;;
17566;SDS011;8901;52.088;5.084;2023-04-06T03:05:14;20.77;;;19.07;;
17566;SDS011;8901;52.088;5.084;2023-04-06T03:07:43;20.50;;;18.77;;
17566;SDS011;8901;52.088;5.084;2023-04-06T03:10:10;21.67;;;19.87;;
17566;SDS011;8901;52.088;5.084;2023-04-06T03:12:38;20.33;;;18.73;;
17566;SDS011;8901;52.088;5.084;2023-04-06T03:15:07;19.67;;;18.17;;
17566;SDS011;8901;52.088;5.084;2023-04-06T03:17:34;20.87;;;19.27;;
17566;SDS011;8901;52.088;5.084;2023-04-06T03:20:01;20.20;;;18.40;;
17566;SDS011;8901;52.088;5.084;2023-04-06T03:22:29;21.83;;;20.13;;
17566;SDS011;8901;52.088;5.084;2023-04-06T03:24:57;20.40;;;18.77;;
17566;SDS011;8901;52.088;5.084;2023-04-06T03:27:24;20.50;;;19.00;;
17566;SDS011;8901;52.088;5.084;2023-04-06T03:29:51;21.97;;;20.17;;
17566;SDS011;8901;52.088;5.084;2023-04-06T03:32:19;21.90;;;20.20;;
17566;SDS011;8901;52.088;5.084;2023-04-06T03:34:46;22.27;;;20.37;;
17566;SDS011;8901;52.088;5.084;2023-04-06T03:37:13;23.10;;;21.03;;
17566;SDS011;8901;52.088;5.084;2023-04-06T03:39:40;21.37;;;19.50;;
17566;SDS011;8901;52.088;5.084;2023-04-06T03:42:09;21.27;;;19.57;;
17566;SDS011;8901;52.088;5.084;2023-04-06T03:44:36;22.67;;;20.73;;
17566;SDS011;8901;52.088;5.084;2023-04-06T03:47:03;20.83;;;18.93;;
17566;SDS011;8901;52.088;5.084;2023-04-06T03:49:30;20.60;;;18.90;;
17566;SDS011;8901;52.088;5.084;2023-04-06T03:51:57;21.43;;;19.63;;
17566;SDS011;8901;52.088;5.084;2023-04-06T03:54:25;21.00;;;19.20;;
17566;SDS011;8901;52.088;5.084;2023-04-06T03:56:52;21.40;;;19.47;;
17566;SDS011;8901;52.088;5.084;2023-04-06T03:59:21;22.83;;;20.93;;
17566;SDS011;8901;52.088;5.084;2023-04-06T04:01:48;21.90;;;20.00;;
17566;SDS011;8901;52.088;5.084;2023-04-06T04:04:16;22.27;;;20.17;;
17566;SDS011;8901;52.088;5.084;2023-04-06T04:06:43;22.13;;;19.37;;
17566;SDS011;8901;52.088;5.084;2023-04-06T04:09:10;20.43;;;18.67;;
17566;SDS011;8901;52.088;5.084;2023-04-06T04:11:37;20.27;;;18.27;;
17566;SDS011;8901;52.088;5.084;2023-04-06T04:14:04;21.40;;;19.43;;
17566;SDS011;8901;52.088;5.084;2023-04-06T04:16:33;17.73;;;16.33;;
17566;SDS011;8901;52.088;5.084;2023-04-06T04:19:00;20.53;;;18.63;;
17566;SDS011;8901;52.088;5.084;2023-04-06T04:21:28;21.23;;;19.07;;
17566;SDS011;8901;52.088;5.084;2023-04-06T04:23:56;19.63;;;17.90;;
17566;SDS011;8901;52.088;5.084;2023-04-06T04:26:23;20.20;;;18.37;;
17566;SDS011;8901;52.088;5.084;2023-04-06T04:28:50;20.17;;;18.33;;
17566;SDS011;8901;52.088;5.084;2023-04-06T04:31:17;22.00;;;20.07;;
17566;SDS011;8901;52.088;5.084;2023-04-06T04:33:48;18.10;;;16.60;;
17566;SDS011;8901;52.088;5.084;2023-04-06T04:36:15;20.53;;;18.73;;
17566;SDS011;8901;52.088;5.084;2023-04-06T04:38:42;18.50;;;16.70;;
17566;SDS011;8901;52.088;5.084;2023-04-06T04:41:10;20.60;;;18.70;;
17566;SDS011;8901;52.088;5.084;2023-04-06T04:43:37;22.17;;;20.03;;
17566;SDS011;8901;52.088;5.084;2023-04-06T04:46:04;23.00;;;20.90;;
17566;SDS011;8901;52.088;5.084;2023-04-06T04:48:31;20.40;;;18.40;;
17566;SDS011;8901;52.088;5.084;2023-04-06T04:51:00;20.27;;;18.43;;
17566;SDS011;8901;52.088;5.084;2023-04-06T04:53:27;21.77;;;19.97;;
17566;SDS011;8901;52.088;5.084;2023-04-06T04:55:54;18.93;;;17.23;;
17566;SDS011;8901;52.088;5.084;2023-04-06T04:58:21;21.57;;;19.43;;
17566;SDS011;8901;52.088;5.084;2023-04-06T05:00:48;21.33;;;19.27;;
17566;SDS011;8901;52.088;5.084;2023-04-06T05:03:17;20.53;;;18.83;;
17566;SDS011;8901;52.088;5.084;2023-04-06T05:05:45;20.53;;;18.60;;
17566;SDS011;8901;52.088;5.084;2023-04-06T05:08:13;19.70;;;17.83;;
17566;SDS011;8901;52.088;5.084;2023-04-06T05:10:41;18.50;;;17.00;;
17566;SDS011;8901;52.088;5.084;2023-04-06T05:13:08;20.03;;;18.23;;
17566;SDS011;8901;52.088;5.084;2023-04-06T05:15:35;21.67;;;19.67;;
17566;SDS011;8901;52.088;5.084;2023-04-06T05:18:05;18.67;;;17.10;;
17566;SDS011;8901;52.088;5.084;2023-04-06T05:20:32;20.27;;;18.27;;
17566;SDS011;8901;52.088;5.084;2023-04-06T05:22:59;20.33;;;18.53;;
17566;SDS011;8901;52.088;5.084;2023-04-06T05:25:28;20.77;;;18.87;;
17566;SDS011;8901;52.088;5.084;2023-04-06T05:27:55;20.67;;;18.67;;
17566;SDS011;8901;52.088;5.084;2023-04-06T05:30:22;19.20;;;17.37;;
17566;SDS011;8901;52.088;5.084;2023-04-06T05:32:50;20.00;;;18.10;;
17566;SDS011;8901;52.088;5.084;2023-04-06T05:35:17;25.33;;;23.23;;
17566;SDS011;8901;52.088;5.084;2023-04-06T05:37:45;30.27;;;27.57;;
17566;SDS011;8901;52.088;5.084;2023-04-06T05:40:12;28.50;;;25.80;;
17566;SDS011;8901;52.088;5.084;2023-04-06T05:42:41;28.27;;;25.97;;
17566;SDS011;8901;52.088;5.084;2023-04-06T05:45:09;27.43;;;24.77;;
17566;SDS011;8901;52.088;5.084;2023-04-06T05:47:41;28.43;;;25.83;;
17566;SDS011;8901;52.088;5.084;2023-04-06T05:50:08;24.83;;;22.53;;
17566;SDS011;8901;52.088;5.084;2023-04-06T05:52:36;27.47;;;25.17;;
17566;SDS011;8901;52.088;5.084;2023-04-06T05:55:03;27.87;;;25.37;;
17566;SDS011;8901;52.088;5.084;2023-04-06T05:57:30;27.70;;;25.00;;
17566;SDS011;8901;52.088;5.084;2023-04-06T05:59:59;27.60;;;25.10;;
17566;SDS011;8901;52.088;5.084;2023-04-06T06:02:26;29.87;;;27.07;;
17566;SDS011;8901;52.088;5.084;2023-04-06T06:04:53;28.07;;;25.37;;
17566;SDS011;8901;52.088;5.084;2023-04-06T06:07:20;26.00;;;23.80;;
17566;SDS011;8901;52.088;5.084;2023-04-06T06:09:47;27.83;;;25.33;;
17566;SDS011;8901;52.088;5.084;2023-04-06T06:12:15;27.33;;;25.07;;
17566;SDS011;8901;52.088;5.084;2023-04-06T06:14:42;26.67;;;24.47;;
17566;SDS011;8901;52.088;5.084;2023-04-06T06:17:10;25.97;;;23.67;;
17566;SDS011;8901;52.088;5.084;2023-04-06T06:19:40;27.40;;;24.97;;
17566;SDS011;8901;52.088;5.084;2023-04-06T06:22:07;29.87;;;27.13;;
17566;SDS011;8901;52.088;5.084;2023-04-06T06:24:34;28.10;;;25.40;;
17566;SDS011;8901;52.088;5.084;2023-04-06T06:27:01;29.80;;;27.20;;
17566;SDS011;8901;52.088;5.084;2023-04-06T06:29:28;30.27;;;27.17;;
17566;SDS011;8901;52.088;5.084;2023-04-06T06:31:56;29.30;;;26.80;;
17566;SDS011;8901;52.088;5.084;2023-04-06T06:34:24;30.67;;;26.00;;
17566;SDS011;8901;52.088;5.084;2023-04-06T06:36:51;26.90;;;24.60;;
17566;SDS011;8901;52.088;5.084;2023-04-06T06:39:20;29.10;;;26.30;;
17566;SDS011;8901;52.088;5.084;2023-04-06T06:41:47;28.27;;;25.60;;
17566;SDS011;8901;52.088;5.084;2023-04-06T06:44:15;28.67;;;25.67;;
17566;SDS011;8901;52.088;5.084;2023-04-06T06:46:42;31.43;;;28.27;;
17566;SDS011;8901;52.088;5.084;2023-04-06T06:49:10;28.70;;;26.00;;
17566;SDS011;8901;52.088;5.084;2023-04-06T06:51:38;28.53;;;25.87;;
17566;SDS011;8901;52.088;5.084;2023-04-06T06:54:05;28.27;;;25.77;;
17566;SDS011;8901;52.088;5.084;2023-04-06T06:56:33;27.53;;;25.00;;
17566;SDS011;8901;52.088;5.084;2023-04-06T06:59:00;30.53;;;27.93;;
17566;SDS011;8901;52.088;5.084;2023-04-06T07:01:28;29.47;;;26.97;;
17566;SDS011;8901;52.088;5.084;2023-04-06T07:03:55;29.47;;;26.87;;
17566;SDS011;8901;52.088;5.084;2023-04-06T07:06:22;28.37;;;25.60;;
17566;SDS011;8901;52.088;5.084;2023-04-06T07:08:51;28.87;;;26.27;;
17566;SDS011;8901;52.088;5.084;2023-04-06T07:11:18;30.10;;;27.43;;
17566;SDS011;8901;52.088;5.084;2023-04-06T07:13:45;28.03;;;25.47;;
17566;SDS011;8901;52.088;5.084;2023-04-06T07:16:12;29.13;;;26.73;;
17566;SDS011;8901;52.088;5.084;2023-04-06T07:18:40;28.47;;;26.10;;
17566;SDS011;8901;52.088;5.084;2023-04-06T07:21:07;29.57;;;27.17;;
17566;SDS011;8901;52.088;5.084;2023-04-06T07:23:34;29.73;;;27.27;;
17566;SDS011;8901;52.088;5.084;2023-04-06T07:26:03;28.87;;;26.27;;
17566;SDS011;8901;52.088;5.084;2023-04-06T07:28:30;29.03;;;26.43;;
17566;SDS011;8901;52.088;5.084;2023-04-06T07:30:57;31.33;;;28.67;;
17566;SDS011;8901;52.088;5.084;2023-04-06T07:33:24;29.90;;;27.37;;
17566;SDS011;8901;52.088;5.084;2023-04-06T07:35:54;30.97;;;27.80;;
17566;SDS011;8901;52.088;5.084;2023-04-06T07:38:23;31.00;;;28.30;;
17566;SDS011;8901;52.088;5.084;2023-04-06T07:40:51;31.17;;;28.23;;
17566;SDS011;8901;52.088;5.084;2023-04-06T07:43:19;31.20;;;28.27;;
17566;SDS011;8901;52.088;5.084;2023-04-06T07:45:46;30.20;;;27.23;;
17566;SDS011;8901;52.088;5.084;2023-04-06T07:48:13;30.77;;;28.07;;
17566;SDS011;8901;52.088;5.084;2023-04-06T07:50:41;31.43;;;28.57;;
17566;SDS011;8901;52.088;5.084;2023-04-06T07:53:08;30.00;;;27.50;;
17566;SDS011;8901;52.088;5.084;2023-04-06T07:55:35;31.00;;;28.30;;
17566;SDS011;8901;52.088;5.084;2023-04-06T07:58:02;30.43;;;27.70;;
17566;SDS011;8901;52.088;5.084;2023-04-06T08:00:31;33.30;;;30.23;;
17566;SDS011;8901;52.088;5.084;2023-04-06T08:02:58;31.17;;;27.87;;
17566;SDS011;8901;52.088;5.084;2023-04-06T08:05:25;31.13;;;28.10;;
17566;SDS011;8901;52.088;5.084;2023-04-06T08:07:52;30.97;;;28.37;;
17566;SDS011;8901;52.088;5.084;2023-04-06T08:10:20;31.03;;;28.07;;
17566;SDS011;8901;52.088;5.084;2023-04-06T08:12:47;29.57;;;26.87;;
17566;SDS011;8901;52.088;5.084;2023-04-06T08:15:14;28.73;;;26.33;;
17566;SDS011;8901;52.088;5.084;2023-04-06T08:17:44;30.20;;;27.50;;
17566;SDS011;8901;52.088;5.084;2023-04-06T08:20:11;30.73;;;27.87;;
17566;SDS011;8901;52.088;5.084;2023-04-06T08:22:39;29.63;;;26.97;;
17566;SDS011;8901;52.088;5.084;2023-04-06T08:25:06;32.70;;;29.70;;
17566;SDS011;8901;52.088;5.084;2023-04-06T08:27:33;31.50;;;28.60;;
17566;SDS011;8901;52.088;5.084;2023-04-06T08:30:00;30.67;;;27.87;;
17566;SDS011;8901;52.088;5.084;2023-04-06T08:32:27;33.40;;;30.30;;
17566;SDS011;8901;52.088;5.084;2023-04-06T08:34:56;28.50;;;26.00;;
17566;SDS011;8901;52.088;5.084;2023-04-06T08:37:24;29.57;;;26.97;;
17566;SDS011;8901;52.088;5.084;2023-04-06T08:39:51;32.70;;;29.90;;
17566;SDS011;8901;52.088;5.084;2023-04-06T08:42:19;34.20;;;31.10;;
17566;SDS011;8901;52.088;5.084;2023-04-06T08:44:46;31.00;;;27.97;;
17566;SDS011;8901;52.088;5.084;2023-04-06T08:47:13;31.23;;;28.00;;
17566;SDS011;8901;52.088;5.084;2023-04-06T08:49:41;29.57;;;26.67;;
17566;SDS011;8901;52.088;5.084;2023-04-06T08:52:10;29.80;;;26.97;;
17566;SDS011;8901;52.088;5.084;2023-04-06T08:54:37;30.53;;;27.73;;
17566;SDS011;8901;52.088;5.084;2023-04-06T08:57:04;30.93;;;28.13;;
17566;SDS011;8901;52.088;5.084;2023-04-06T08:59:32;29.93;;;27.30;;
17566;SDS011;8901;52.088;5.084;2023-04-06T09:01:59;29.77;;;26.93;;
17566;SDS011;8901;52.088;5.084;2023-04-06T09:04:29;33.93;;;30.60;;
17566;SDS011;8901;52.088;5.084;2023-04-06T09:06:57;29.30;;;26.80;;
17566;SDS011;8901;52.088;5.084;2023-04-06T09:09:26;29.93;;;26.87;;
17566;SDS011;8901;52.088;5.084;2023-04-06T09:11:53;28.77;;;25.63;;
17566;SDS011;8901;52.088;5.084;2023-04-06T09:14:33;29.43;;;26.73;;
17566;SDS011;8901;52.088;5.084;2023-04-06T09:17:00;31.37;;;28.20;;
17566;SDS011;8901;52.088;5.084;2023-04-06T09:19:28;27.77;;;25.20;;
17566;SDS011;8901;52.088;5.084;2023-04-06T09:22:00;30.47;;;27.63;;
17566;SDS011;8901;52.088;5.084;2023-04-06T09:24:38;29.47;;;26.73;;
17566;SDS011;8901;52.088;5.084;2023-04-06T09:27:05;33.63;;;30.63;;
17566;SDS011;8901;52.088;5.084;2023-04-06T09:29:33;32.13;;;29.13;;
17566;SDS011;8901;52.088;5.084;2023-04-06T09:32:02;33.67;;;30.67;;
17566;SDS011;8901;52.088;5.084;2023-04-06T09:34:29;30.87;;;27.97;;
17566;SDS011;8901;52.088;5.084;2023-04-06T09:36:56;31.93;;;29.03;;
17566;SDS011;8901;52.088;5.084;2023-04-06T09:39:24;32.63;;;29.77;;
17566;SDS011;8901;52.088;5.084;2023-04-06T09:41:53;34.60;;;31.43;;
17566;SDS011;8901;52.088;5.084;2023-04-06T09:44:20;34.37;;;30.83;;
17566;SDS011;8901;52.088;5.084;2023-04-06T09:46:49;29.30;;;26.70;;
17566;SDS011;8901;52.088;5.084;2023-04-06T09:49:16;30.63;;;27.57;;
17566;SDS011;8901;52.088;5.084;2023-04-06T09:51:44;31.00;;;28.23;;
17566;SDS011;8901;52.088;5.084;2023-04-06T09:54:15;31.07;;;27.97;;
17566;SDS011;8901;52.088;5.084;2023-04-06T09:56:44;29.13;;;26.43;;
17566;SDS011;8901;52.088;5.084;2023-04-06T09:59:15;31.03;;;28.03;;
17566;SDS011;8901;52.088;5.084;2023-04-06T10:01:44;27.67;;;25.20;;
17566;SDS011;8901;52.088;5.084;2023-04-06T10:04:17;28.43;;;25.70;;
17566;SDS011;8901;52.088;5.084;2023-04-06T10:06:48;26.90;;;24.50;;
17566;SDS011;8901;52.088;5.084;2023-04-06T10:09:17;24.83;;;22.53;;
17566;SDS011;8901;52.088;5.084;2023-04-06T10:11:45;25.17;;;22.87;;
17566;SDS011;8901;52.088;5.084;2023-04-06T10:14:14;22.90;;;20.70;;
17566;SDS011;8901;52.088;5.084;2023-04-06T10:16:42;16.63;;;14.90;;
17566;SDS011;8901;52.088;5.084;2023-04-06T10:19:10;20.13;;;15.10;;
17566;SDS011;8901;52.088;5.084;2023-04-06T10:21:39;21.73;;;19.60;;
17566;SDS011;8901;52.088;5.084;2023-04-06T10:24:07;21.90;;;20.00;;
17566;SDS011;8901;52.088;5.084;2023-04-06T10:26:37;29.20;;;26.47;;
17566;SDS011;8901;52.088;5.084;2023-04-06T10:29:05;23.27;;;21.27;;
17566;SDS011;8901;52.088;5.084;2023-04-06T10:31:39;23.30;;;21.67;;
17566;SDS011;8901;52.088;5.084;2023-04-06T10:34:06;24.50;;;22.40;;
17566;SDS011;8901;52.088;5.084;2023-04-06T10:36:33;21.33;;;19.73;;
17566;SDS011;8901;52.088;5.084;2023-04-06T10:39:01;22.43;;;20.77;;
17566;SDS011;8901;52.088;5.084;2023-04-06T10:41:32;23.07;;;21.37;;
17566;SDS011;8901;52.088;5.084;2023-04-06T10:44:00;22.53;;;20.83;;
17566;SDS011;8901;52.088;5.084;2023-04-06T10:46:28;22.40;;;20.57;;
17566;SDS011;8901;52.088;5.084;2023-04-06T10:48:57;20.77;;;19.20;;
17566;SDS011;8901;52.088;5.084;2023-04-06T10:51:25;21.07;;;19.37;;
17566;SDS011;8901;52.088;5.084;2023-04-06T10:53:54;20.87;;;19.27;;
17566;SDS011;8901;52.088;5.084;2023-04-06T10:56:21;21.70;;;20.03;;
17566;SDS011;8901;52.088;5.084;2023-04-06T10:58:51;21.20;;;19.60;;
17566;SDS011;8901;52.088;5.084;2023-04-06T11:01:21;20.90;;;19.40;;
17566;SDS011;8901;52.088;5.084;2023-04-06T11:03:49;20.37;;;18.87;;
17566;SDS011;8901;52.088;5.084;2023-04-06T11:06:21;21.53;;;19.93;;
17566;SDS011;8901;52.088;5.084;2023-04-06T11:08:49;19.00;;;17.60;;
17566;SDS011;8901;52.088;5.084;2023-04-06T11:11:17;19.93;;;18.43;;
17566;SDS011;8901;52.088;5.084;2023-04-06T11:13:45;20.33;;;18.83;;
17566;SDS011;8901;52.088;5.084;2023-04-06T11:16:14;18.30;;;16.90;;
17566;SDS011;8901;52.088;5.084;2023-04-06T11:18:48;18.17;;;16.77;;
17566;SDS011;8901;52.088;5.084;2023-04-06T11:21:15;17.77;;;16.37;;
17566;SDS011;8901;52.088;5.084;2023-04-06T11:23:43;17.87;;;16.47;;
17566;SDS011;8901;52.088;5.084;2023-04-06T11:26:11;16.80;;;15.60;;
17566;SDS011;8901;52.088;5.084;2023-04-06T11:28:39;18.20;;;16.83;;
17566;SDS011;8901;52.088;5.084;2023-04-06T11:31:07;15.83;;;14.73;;
17566;SDS011;8901;52.088;5.084;2023-04-06T11:33:35;16.23;;;14.83;;
17566;SDS011;8901;52.088;5.084;2023-04-06T11:36:03;14.97;;;13.97;;
17566;SDS011;8901;52.088;5.084;2023-04-06T11:38:30;20.43;;;19.00;;
17566;SDS011;8901;52.088;5.084;2023-04-06T11:40:59;18.63;;;17.23;;
17566;SDS011;8901;52.088;5.084;2023-04-06T11:43:27;18.27;;;16.97;;
17566;SDS011;8901;52.088;5.084;2023-04-06T11:45:59;20.47;;;18.97;;
17566;SDS011;8901;52.088;5.084;2023-04-06T11:48:27;20.57;;;19.10;;
17566;SDS011;8901;52.088;5.084;2023-04-06T11:50:57;19.97;;;18.67;;
17566;SDS011;8901;52.088;5.084;2023-04-06T11:53:26;19.33;;;18.03;;
17566;SDS011;8901;52.088;5.084;2023-04-06T11:55:54;19.53;;;18.13;;
17566;SDS011;8901;52.088;5.084;2023-04-06T11:58:22;18.43;;;17.13;;
17566;SDS011;8901;52.088;5.084;2023-04-06T12:00:49;19.03;;;17.43;;
17566;SDS011;8901;52.088;5.084;2023-04-06T12:03:17;19.73;;;18.33;;
17566;SDS011;8901;52.088;5.084;2023-04-06T12:05:44;19.67;;;18.27;;
17566;SDS011;8901;52.088;5.084;2023-04-06T12:08:12;19.10;;;17.80;;
17566;SDS011;8901;52.088;5.084;2023-04-06T12:10:39;19.50;;;18.07;;
17566;SDS011;8901;52.088;5.084;2023-04-06T12:13:06;20.20;;;18.63;;
17566;SDS011;8901;52.088;5.084;2023-04-06T12:15:34;18.27;;;16.87;;
17566;SDS011;8901;52.088;5.084;2023-04-06T12:18:01;21.17;;;19.47;;
17566;SDS011;8901;52.088;5.084;2023-04-06T12:20:29;17.13;;;15.83;;
17566;SDS011;8901;52.088;5.084;2023-04-06T12:22:56;16.80;;;15.40;;
17566;SDS011;8901;52.088;5.084;2023-04-06T12:25:23;17.80;;;16.50;;
17566;SDS011;8901;52.088;5.084;2023-04-06T12:27:50;20.33;;;18.73;;
17566;SDS011;8901;52.088;5.084;2023-04-06T12:30:17;19.40;;;17.77;;
17566;SDS011;8901;52.088;5.084;2023-04-06T12:32:46;18.70;;;17.27;;
17566;SDS011;8901;52.088;5.084;2023-04-06T12:35:13;18.33;;;16.80;;
17566;SDS011;8901;52.088;5.084;2023-04-06T12:37:43;19.93;;;18.27;;
17566;SDS011;8901;52.088;5.084;2023-04-06T12:40:10;19.67;;;18.13;;
17566;SDS011;8901;52.088;5.084;2023-04-06T12:42:39;19.80;;;18.20;;
17566;SDS011;8901;52.088;5.084;2023-04-06T12:45:07;20.40;;;18.87;;
17566;SDS011;8901;52.088;5.084;2023-04-06T12:47:35;19.83;;;18.23;;
17566;SDS011;8901;52.088;5.084;2023-04-06T12:50:04;20.60;;;19.10;;
17566;SDS011;8901;52.088;5.084;2023-04-06T12:52:31;21.73;;;20.13;;
17566;SDS011;8901;52.088;5.084;2023-04-06T12:55:00;22.73;;;21.13;;
17566;SDS011;8901;52.088;5.084;2023-04-06T12:57:27;23.13;;;21.47;;
17566;SDS011;8901;52.088;5.084;2023-04-06T12:59:56;23.20;;;21.60;;
17566;SDS011;8901;52.088;5.084;2023-04-06T13:02:23;22.57;;;20.77;;
17566;SDS011;8901;52.088;5.084;2023-04-06T13:04:51;21.47;;;20.07;;
17566;SDS011;8901;52.088;5.084;2023-04-06T13:07:19;21.03;;;19.43;;
17566;SDS011;8901;52.088;5.084;2023-04-06T13:09:46;19.07;;;17.83;;
17566;SDS011;8901;52.088;5.084;2023-04-06T13:12:14;19.23;;;17.70;;
17566;SDS011;8901;52.088;5.084;2023-04-06T13:14:41;19.57;;;17.90;;
17566;SDS011;8901;52.088;5.084;2023-04-06T13:17:09;21.10;;;19.60;;
17566;SDS011;8901;52.088;5.084;2023-04-06T13:19:36;17.03;;;15.70;;
17566;SDS011;8901;52.088;5.084;2023-04-06T13:22:03;19.77;;;18.17;;
17566;SDS011;8901;52.088;5.084;2023-04-06T13:27:00;20.57;;;19.07;;
17566;SDS011;8901;52.088;5.084;2023-04-06T13:29:27;20.27;;;18.77;;
17566;SDS011;8901;52.088;5.084;2023-04-06T13:31:55;20.57;;;18.93;;
17566;SDS011;8901;52.088;5.084;2023-04-06T13:34:22;19.43;;;18.03;;
17566;SDS011;8901;52.088;5.084;2023-04-06T13:36:49;20.97;;;19.30;;
17566;SDS011;8901;52.088;5.084;2023-04-06T13:39:16;22.20;;;20.60;;
17566;SDS011;8901;52.088;5.084;2023-04-06T13:41:43;23.17;;;21.37;;
17566;SDS011;8901;52.088;5.084;2023-04-06T13:44:12;21.40;;;19.87;;
17566;SDS011;8901;52.088;5.084;2023-04-06T13:46:39;19.63;;;18.20;;
17566;SDS011;8901;52.088;5.084;2023-04-06T13:49:08;18.70;;;17.30;;
17566;SDS011;8901;52.088;5.084;2023-04-06T13:51:35;19.23;;;17.70;;
17566;SDS011;8901;52.088;5.084;2023-04-06T13:54:03;22.37;;;20.60;;
17566;SDS011;8901;52.088;5.084;2023-04-06T13:56:30;21.53;;;19.93;;
17566;SDS011;8901;52.088;5.084;2023-04-06T13:58:57;23.73;;;21.87;;
17566;SDS011;8901;52.088;5.084;2023-04-06T14:01:26;21.70;;;20.20;;
17566;SDS011;8901;52.088;5.084;2023-04-06T14:03:53;22.17;;;20.53;;
17566;SDS011;8901;52.088;5.084;2023-04-06T14:06:20;22.60;;;21.00;;
17566;SDS011;8901;52.088;5.084;2023-04-06T14:08:47;21.30;;;19.60;;
17566;SDS011;8901;52.088;5.084;2023-04-06T14:11:15;21.37;;;19.80;;
17566;SDS011;8901;52.088;5.084;2023-04-06T14:13:42;22.40;;;20.80;;
17566;SDS011;8901;52.088;5.084;2023-04-06T14:16:09;22.20;;;20.50;;
17566;SDS011;8901;52.088;5.084;2023-04-06T14:18:38;20.93;;;19.23;;
17566;SDS011;8901;52.088;5.084;2023-04-06T14:21:05;22.03;;;20.30;;
17566;SDS011;8901;52.088;5.084;2023-04-06T14:23:33;21.63;;;20.13;;
17566;SDS011;8901;52.088;5.084;2023-04-06T14:26:00;21.73;;;20.20;;
17566;SDS011;8901;52.088;5.084;2023-04-06T14:28:28;21.07;;;19.57;;
17566;SDS011;8901;52.088;5.084;2023-04-06T14:30:56;18.67;;;17.27;;
17566;SDS011;8901;52.088;5.084;2023-04-06T14:33:23;21.50;;;20.00;;
17566;SDS011;8901;52.088;5.084;2023-04-06T14:35:52;19.90;;;18.43;;
17566;SDS011;8901;52.088;5.084;2023-04-06T14:38:19;20.53;;;19.03;;